KAPN/APN METAR and TAF weather

Enter ICAO airport designator
Station Type Date Time Source
KAPN METAR 2021/05/12 00:54 UTC NOAA

KAPN 120054Z 33012G22KT 10SM SCT095 09/M02 A3026 RMK AO2 SLP253 T00941022


Station Type Date Time Source
KAPN Decoded METAR 2021/05/12 00:54 UTC NOAA

ALPENA COUNTY REGIONAL AIRPORT, MI, United States (KAPN) 45-05N 083-34W 210M
May 11, 2021 - 08:54 PM EDT / 2021.05.12 0054 UTC
Wind: from the NNW (330 degrees) at 14 MPH (12 KT) gusting to 25 MPH (22 KT):0
Visibility: 10 mile(s):0
Sky conditions: partly cloudy
Temperature: 48.9 F (9.4 C)
Dew Point: 28.0 F (-2.2 C)
Relative Humidity: 44%
Pressure (altimeter): 30.26 in. Hg (1024 hPa)
ob: KAPN 120054Z 33012G22KT 10SM SCT095 09/M02 A3026 RMK AO2 SLP253 T00941022
cycle: 1

Station Type Date Time Source
KAPN TAF 2021/05/11 18:21 UTC NOAA

TAF KAPN 111720Z 1118/1218 31013G24KT P6SM -SHRA BKN035 OVC070
FM112000 31013G22KT P6SM BKN080
FM120100 31008KT P6SM BKN070
FM120300 31007KT P6SM SCT080
FM120800 30004KT P6SM SKC
FM121400 29011KT P6SM SKC

Example: see airport list